Time;durP1;ratioP1;P1;durP2;ratioP2;P2;SDS_P1;SDS_P2;PMS_P1;PMS_P2;Temp;Humidity;BMP_temperature;BMP_pressure;BME280_temperature;BME280_humidity;BME280_pressure;Samples;Min_cycle;Max_cycle;Signal;HPM_P1;HPM_P2
2021/11/24 00:02:28;;;;;;;22.27;14.87;;;1.40;98.70;;;;;;5043129;28;20244;-86
2021/11/24 00:04:55;;;;;;;21.47;15.13;;;1.50;98.30;;;;;;5045619;28;20236;-85
2021/11/24 00:07:22;;;;;;;23.73;15.80;;;1.70;97.80;;;;;;5060459;28;20233;-86
2021/11/24 00:09:49;;;;;;;22.93;16.97;;;1.70;97.00;;;;;;5052269;28;20205;-87
2021/11/24 00:12:16;;;;;;;22.73;16.70;;;1.50;96.90;;;;;;5056061;28;20217;-87
2021/11/24 00:14:45;;;;;;;24.80;16.80;;;1.30;97.30;;;;;;5054994;28;20205;-86
2021/11/24 00:17:12;;;;;;;25.57;17.20;;;1.10;97.70;;;;;;5055208;28;20209;-86
2021/11/24 00:19:39;;;;;;;23.17;17.17;;;1.00;98.00;;;;;;5054411;28;20288;-87
2021/11/24 00:22:08;;;;;;;27.23;18.70;;;1.00;98.40;;;;;;5044322;28;20316;-87
2021/11/24 00:24:35;;;;;;;24.07;17.23;;;0.90;98.80;;;;;;5053703;28;20186;-86
2021/11/24 00:27:02;;;;;;;24.07;16.87;;;0.90;98.60;;;;;;5047144;28;20221;-85
2021/11/24 00:29:29;;;;;;;22.47;16.77;;;0.90;98.60;;;;;;5052147;28;20202;-86
2021/11/24 00:31:57;;;;;;;22.93;16.77;;;0.80;98.70;;;;;;5054788;28;20226;-86
2021/11/24 00:34:24;;;;;;;23.27;17.43;;;0.80;98.90;;;;;;5049763;28;20532;-86
2021/11/24 00:36:52;;;;;;;25.40;16.80;;;0.80;99.10;;;;;;5052970;28;20221;-86
2021/11/24 00:39:19;;;;;;;23.93;16.60;;;0.70;99.20;;;;;;5050443;28;20190;-86
2021/11/24 00:41:46;;;;;;;23.73;16.70;;;0.80;99.20;;;;;;5054206;28;20225;-85
2021/11/24 00:44:13;;;;;;;24.77;16.40;;;1.00;99.40;;;;;;5054342;28;20217;-87
2021/11/24 00:46:40;;;;;;;21.63;15.43;;;1.10;99.00;;;;;;5045502;28;20226;-87
2021/11/24 00:49:09;;;;;;;21.27;15.73;;;1.10;99.00;;;;;;5054089;28;20205;-85
2021/11/24 00:51:36;;;;;;;20.33;15.63;;;1.30;98.10;;;;;;5053827;28;20304;-87
2021/11/24 00:54:03;;;;;;;19.97;14.73;;;1.50;97.60;;;;;;5054059;28;20201;-87
2021/11/24 00:56:30;;;;;;;20.97;15.97;;;1.50;96.60;;;;;;5048815;28;20218;-86
2021/11/24 00:58:57;;;;;;;22.93;15.90;;;1.30;95.90;;;;;;5045944;28;20193;-86
2021/11/24 01:01:24;;;;;;;20.73;15.87;;;1.00;96.50;;;;;;5053094;28;20696;-87
2021/11/24 01:03:51;;;;;;;21.73;15.40;;;0.90;97.10;;;;;;5054900;28;20198;-86
2021/11/24 01:06:20;;;;;;;23.83;15.87;;;0.80;97.50;;;;;;5055007;28;20232;-89
2021/11/24 01:08:47;;;;;;;23.43;16.97;;;0.70;97.70;;;;;;5053709;28;20209;-86
2021/11/24 01:11:14;;;;;;;25.20;16.77;;;0.60;98.40;;;;;;5051964;28;20229;-87
2021/11/24 01:13:41;;;;;;;25.07;16.90;;;0.60;98.50;;;;;;5053423;28;20193;-86
2021/11/24 01:16:09;;;;;;;23.00;16.83;;;0.60;98.70;;;;;;5053183;28;20224;-87
2021/11/24 01:18:36;;;;;;;25.33;17.87;;;0.70;99.00;;;;;;5054960;28;20199;-85
2021/11/24 01:21:03;;;;;;;26.57;18.77;;;0.70;99.00;;;;;;5049448;28;20280;-86
2021/11/24 01:23:32;;;;;;;23.80;17.00;;;0.80;98.90;;;;;;5054917;28;20587;-86
2021/11/24 01:25:59;;;;;;;24.40;17.73;;;0.90;98.90;;;;;;5054845;28;20237;-86
2021/11/24 01:28:26;;;;;;;25.43;18.50;;;1.00;98.80;;;;;;5056519;28;20202;-85
2021/11/24 01:30:53;;;;;;;23.80;17.27;;;1.10;98.60;;;;;;5056816;28;20264;-85
2021/11/24 01:33:20;;;;;;;23.67;16.97;;;1.20;98.30;;;;;;5054294;28;20288;-87
2021/11/24 01:35:48;;;;;;;25.30;17.33;;;1.30;98.00;;;;;;5052962;28;20228;-85
2021/11/24 01:38:15;;;;;;;24.13;17.33;;;1.50;97.50;;;;;;5053730;28;20562;-86
2021/11/24 01:40:43;;;;;;;25.40;17.93;;;1.70;97.00;;;;;;5053149;28;20226;-87
2021/11/24 01:43:10;;;;;;;29.23;19.30;;;1.60;97.00;;;;;;5050525;28;20572;-84
2021/11/24 01:45:37;;;;;;;31.20;18.77;;;1.50;97.10;;;;;;5052196;28;20307;-87
2021/11/24 01:48:05;;;;;;;29.47;18.83;;;1.50;97.70;;;;;;5043127;28;20586;-86
2021/11/24 01:50:32;;;;;;;27.53;18.40;;;1.60;97.50;;;;;;5046077;28;20712;-86
2021/11/24 01:53:00;;;;;;;46.20;21.77;;;1.60;97.60;;;;;;5051550;28;20206;-85
2021/11/24 01:55:28;;;;;;;33.20;20.77;;;1.50;97.80;;;;;;5052411;28;20252;-87
2021/11/24 01:57:57;;;;;;;33.27;20.17;;;1.60;98.00;;;;;;5052232;28;20201;-87
2021/11/24 02:00:27;;;;;;;29.00;18.83;;;1.60;97.80;;;;;;5048553;28;20229;-87
2021/11/24 02:02:54;;;;;;;29.70;19.07;;;1.70;98.20;;;;;;5053109;28;20222;-87
2021/11/24 02:05:22;;;;;;;36.83;20.13;;;1.70;98.10;;;;;;5053143;28;20225;-87
2021/11/24 02:07:49;;;;;;;34.23;20.73;;;1.80;98.00;;;;;;5052675;28;20210;-86
2021/11/24 02:10:16;;;;;;;33.77;19.33;;;1.80;97.80;;;;;;5052392;28;20228;-87
2021/11/24 02:12:44;;;;;;;37.93;20.20;;;1.90;98.10;;;;;;5052111;28;20206;-88
2021/11/24 02:15:12;;;;;;;33.27;20.43;;;1.80;97.50;;;;;;5045533;28;20236;-87
2021/11/24 02:17:39;;;;;;;28.43;19.00;;;1.70;97.50;;;;;;5052164;28;20202;-84
2021/11/24 02:20:12;;;;;;;45.17;20.30;;;1.70;97.60;;;;;;5051150;28;20595;-88
2021/11/24 02:22:39;;;;;;;38.13;20.10;;;1.60;97.40;;;;;;5045992;28;20716;-89
2021/11/24 02:25:07;;;;;;;36.73;19.27;;;1.60;97.70;;;;;;5051566;28;20229;-88
2021/11/24 02:27:34;;;;;;;37.17;20.17;;;1.40;98.20;;;;;;5051434;28;20193;-87
2021/11/24 02:30:01;;;;;;;33.77;20.17;;;1.50;98.20;;;;;;5051506;28;20232;-86
2021/11/24 02:32:28;;;;;;;33.63;20.00;;;1.50;98.20;;;;;;5056583;28;20204;-88
2021/11/24 02:34:55;;;;;;;29.87;18.93;;;1.60;98.40;;;;;;5052590;28;20226;-87
2021/11/24 02:37:23;;;;;;;38.40;20.90;;;1.70;98.60;;;;;;5050584;28;20206;-87
2021/11/24 02:39:50;;;;;;;32.97;20.13;;;1.70;97.80;;;;;;5051522;28;20194;-87
2021/11/24 02:42:17;;;;;;;30.33;19.13;;;1.70;97.80;;;;;;5055828;28;20224;-87
2021/11/24 02:44:44;;;;;;;35.50;20.97;;;1.70;97.90;;;;;;5054896;28;20740;-85
2021/11/24 02:47:13;;;;;;;30.53;19.10;;;1.60;98.00;;;;;;5055967;28;20198;-86
2021/11/24 02:49:42;;;;;;;36.03;21.53;;;1.70;98.00;;;;;;5055774;28;20197;-86
2021/11/24 02:52:10;;;;;;;34.93;20.23;;;1.70;98.00;;;;;;5053264;28;20213;-86
2021/11/24 02:54:39;;;;;;;36.70;21.57;;;1.60;98.10;;;;;;5055639;28;20202;-86
2021/11/24 02:57:09;;;;;;;33.10;19.90;;;1.90;98.10;;;;;;5049881;28;20206;-86
2021/11/24 02:59:38;;;;;;;34.97;19.80;;;2.10;98.10;;;;;;5048043;28;20220;-87
2021/11/24 03:02:04;;;;;;;33.10;20.00;;;2.00;97.10;;;;;;5057149;28;20222;-84
2021/11/24 03:04:33;;;;;;;32.60;18.67;;;2.00;96.90;;;;;;5054887;28;20198;-86
2021/11/24 03:07:11;;;;;;;32.47;20.10;;;1.80;97.00;;;;;;5062749;28;20249;-86
2021/11/24 03:09:39;;;;;;;31.80;19.83;;;1.80;97.40;;;;;;5058250;28;20258;-87
2021/11/24 03:12:07;;;;;;;33.80;18.63;;;1.80;97.30;;;;;;5054413;28;20205;-85
2021/11/24 03:14:34;;;;;;;28.20;17.83;;;1.80;97.60;;;;;;5070801;28;20189;-87
2021/11/24 03:17:01;;;;;;;30.40;18.20;;;1.90;98.00;;;;;;5050221;28;20551;-87
2021/11/24 03:19:28;;;;;;;29.77;18.47;;;2.10;97.40;;;;;;5058826;28;20216;-88
2021/11/24 03:21:55;;;;;;;30.87;18.80;;;2.30;97.00;;;;;;5059543;28;20226;-87
2021/11/24 03:24:22;;;;;;;31.30;17.67;;;2.20;96.60;;;;;;5061718;28;20238;-88
2021/11/24 03:26:50;;;;;;;27.93;17.40;;;2.10;96.40;;;;;;5053982;28;20255;-87
2021/11/24 03:29:17;;;;;;;26.67;17.07;;;2.00;97.10;;;;;;5054492;28;20204;-87
2021/11/24 03:31:45;;;;;;;26.23;17.50;;;2.10;96.90;;;;;;5054332;28;20218;-88
2021/11/24 03:34:11;;;;;;;27.70;17.43;;;2.10;97.10;;;;;;5051103;28;20667;-86
2021/11/24 03:36:39;;;;;;;27.80;16.57;;;2.00;97.10;;;;;;5053648;28;20234;-87
2021/11/24 03:39:07;;;;;;;25.07;16.00;;;2.00;97.20;;;;;;5053883;28;20194;-85
2021/11/24 03:41:34;;;;;;;28.07;16.73;;;2.20;96.90;;;;;;5053953;28;20731;-87
2021/11/24 03:44:02;;;;;;;22.83;14.93;;;2.10;96.30;;;;;;5054779;28;20226;-85
2021/11/24 03:46:29;;;;;;;24.07;15.93;;;2.10;97.00;;;;;;5054026;28;20673;-86
2021/11/24 03:48:56;;;;;;;23.43;15.07;;;2.20;96.70;;;;;;5055130;28;20672;-85
2021/11/24 03:51:23;;;;;;;24.60;16.23;;;2.30;96.80;;;;;;5054469;28;20236;-87
2021/11/24 03:53:51;;;;;;;20.43;14.43;;;2.20;96.20;;;;;;5050259;28;20574;-85
2021/11/24 03:56:18;;;;;;;24.47;15.70;;;2.10;96.00;;;;;;5055280;28;20228;-85
2021/11/24 03:58:45;;;;;;;22.13;15.33;;;2.00;96.10;;;;;;5046770;28;20211;-87
2021/11/24 04:01:14;;;;;;;24.87;14.60;;;2.00;96.50;;;;;;5054080;28;20245;-85
2021/11/24 04:03:42;;;;;;;23.60;16.00;;;2.00;96.70;;;;;;5054530;28;20260;-86
2021/11/24 04:06:09;;;;;;;22.23;14.57;;;2.00;96.80;;;;;;5053796;28;20229;-86
2021/11/24 04:08:35;;;;;;;21.87;14.83;;;1.90;97.00;;;;;;5050919;28;20201;-88
2021/11/24 04:11:02;;;;;;;24.77;16.23;;;2.10;97.10;;;;;;5041981;28;20230;-86
2021/11/24 04:13:32;;;;;;;23.43;15.50;;;2.10;97.00;;;;;;5051907;28;20207;-86
2021/11/24 04:15:59;;;;;;;27.20;14.87;;;2.00;96.90;;;;;;5052053;28;20300;-85
2021/11/24 04:18:27;;;;;;;27.83;15.23;;;2.00;97.10;;;;;;5053784;28;20206;-87
2021/11/24 04:20:56;;;;;;;21.77;14.70;;;2.10;97.10;;;;;;5053689;28;20242;-85
2021/11/24 04:23:23;;;;;;;22.30;15.27;;;2.00;97.10;;;;;;5054116;28;20312;-87
2021/11/24 04:25:50;;;;;;;23.80;15.27;;;2.00;97.10;;;;;;5046524;28;20230;-86
2021/11/24 04:28:23;;;;;;;21.50;14.40;;;2.00;97.10;;;;;;5049310;28;20778;-87
2021/11/24 04:30:50;;;;;;;19.90;14.10;;;2.00;97.10;;;;;;5051176;28;20227;-87
2021/11/24 04:33:17;;;;;;;19.60;12.83;;;2.20;97.40;;;;;;5052160;28;20202;-86
2021/11/24 04:35:46;;;;;;;22.57;14.13;;;2.40;97.10;;;;;;5045288;28;20218;-86
2021/11/24 04:38:13;;;;;;;22.63;15.00;;;2.30;96.00;;;;;;5045473;28;20572;-86
2021/11/24 04:40:40;;;;;;;24.57;14.27;;;2.20;96.20;;;;;;5053520;28;20229;-87
2021/11/24 04:43:10;;;;;;;22.50;14.80;;;2.10;96.30;;;;;;5053309;28;20697;-86
2021/11/24 04:45:38;;;;;;;20.67;14.90;;;2.20;96.80;;;;;;5053586;28;20236;-86
2021/11/24 04:48:05;;;;;;;24.53;15.13;;;2.10;96.60;;;;;;5051265;28;20209;-86
2021/11/24 04:50:32;;;;;;;27.93;14.63;;;2.10;96.40;;;;;;5053252;28;20233;-86
2021/11/24 04:53:01;;;;;;;20.33;13.30;;;2.00;96.40;;;;;;5054129;28;20228;-87
2021/11/24 04:55:27;;;;;;;20.73;13.63;;;1.90;96.50;;;;;;5053663;28;20236;-86
2021/11/24 04:57:55;;;;;;;23.30;14.40;;;1.80;96.50;;;;;;5054118;28;20204;-86
2021/11/24 05:00:22;;;;;;;21.30;13.87;;;1.70;96.80;;;;;;5053114;28;20292;-86
2021/11/24 05:02:52;;;;;;;22.37;14.47;;;1.80;97.00;;;;;;5054268;28;20225;-86
2021/11/24 05:05:20;;;;;;;20.50;13.43;;;1.70;97.00;;;;;;5050437;28;20320;-87
2021/11/24 05:07:47;;;;;;;19.67;12.93;;;1.80;97.30;;;;;;5048290;28;20230;-87
2021/11/24 05:10:16;;;;;;;19.63;13.60;;;1.80;97.70;;;;;;5053190;28;20241;-87
2021/11/24 05:12:44;;;;;;;19.30;13.33;;;1.90;97.00;;;;;;5052898;28;20265;-86
2021/11/24 05:15:16;;;;;;;21.63;14.27;;;1.90;96.90;;;;;;5034259;28;20234;-86
2021/11/24 05:17:45;;;;;;;22.70;14.10;;;2.00;97.10;;;;;;5043307;28;20216;-87
2021/11/24 05:20:16;;;;;;;22.07;14.40;;;2.10;96.80;;;;;;5053237;28;20243;-86
2021/11/24 05:22:43;;;;;;;25.63;16.00;;;2.00;96.70;;;;;;5053878;28;20229;-87
2021/11/24 05:25:10;;;;;;;24.53;15.73;;;1.90;96.80;;;;;;5048210;28;20711;-86
2021/11/24 05:27:39;;;;;;;32.77;19.73;;;1.90;97.30;;;;;;5054145;28;20201;-86
2021/11/24 05:30:09;;;;;;;32.40;19.23;;;1.80;96.90;;;;;;5053668;28;20240;-85
2021/11/24 05:32:36;;;;;;;35.83;19.60;;;1.60;97.00;;;;;;5044993;28;20212;-87
2021/11/24 05:35:04;;;;;;;43.10;18.47;;;1.60;97.20;;;;;;5046162;28;20234;-87
2021/11/24 05:37:32;;;;;;;41.43;17.93;;;1.60;97.40;;;;;;5048539;28;20217;-86
2021/11/24 05:39:58;;;;;;;42.07;17.90;;;1.60;97.10;;;;;;5041750;28;20238;-86
2021/11/24 05:42:27;;;;;;;43.63;19.10;;;1.40;97.30;;;;;;5048186;28;20675;-86
2021/11/24 05:45:03;;;;;;;44.80;18.33;;;1.40;97.70;;;;;;5052197;28;20253;-85
2021/11/24 05:50:15;;;;;;;38.73;16.50;;;1.40;97.80;;;;;;5046432;28;20231;-87
2021/11/24 05:52:42;;;;;;;32.03;17.67;;;1.30;97.90;;;;;;5052754;28;20645;-87
2021/11/24 05:55:09;;;;;;;32.30;16.97;;;1.20;98.10;;;;;;5046638;28;20233;-86
2021/11/24 05:57:37;;;;;;;26.93;16.77;;;1.40;98.40;;;;;;5051764;28;20190;-87
2021/11/24 06:00:07;;;;;;;36.60;16.37;;;1.40;98.20;;;;;;5051439;28;20229;-86
2021/11/24 06:02:34;;;;;;;27.37;16.27;;;1.40;98.30;;;;;;5056598;28;20208;-87
2021/11/24 06:05:01;;;;;;;38.00;17.07;;;1.50;98.20;;;;;;5050246;28;20233;-87
2021/11/24 06:07:28;;;;;;;29.47;15.37;;;1.40;98.10;;;;;;5057309;28;20198;-87
2021/11/24 06:09:55;;;;;;;27.43;16.80;;;1.50;98.20;;;;;;5057413;28;20201;-86
2021/11/24 06:12:22;;;;;;;28.30;15.50;;;1.50;98.10;;;;;;5057739;28;20209;-86
2021/11/24 06:14:49;;;;;;;28.43;16.93;;;1.60;98.00;;;;;;5056139;28;20208;-86
2021/11/24 06:17:17;;;;;;;36.53;16.00;;;1.50;98.00;;;;;;5057009;28;20205;-87
2021/11/24 06:19:44;;;;;;;37.27;16.10;;;1.60;97.50;;;;;;5055639;28;20201;-87
2021/11/24 06:22:11;;;;;;;26.53;15.40;;;1.40;97.60;;;;;;5056152;28;20209;-87
2021/11/24 06:24:39;;;;;;;26.90;17.37;;;1.40;97.80;;;;;;5055701;28;20224;-87
2021/11/24 06:27:06;;;;;;;29.20;15.13;;;1.60;98.70;;;;;;5047694;28;20251;-87
2021/11/24 06:29:33;;;;;;;27.03;14.50;;;1.50;97.20;;;;;;5054037;28;20205;-87
2021/11/24 06:32:00;;;;;;;20.70;13.47;;;1.60;97.40;;;;;;5056139;28;20304;-87
2021/11/24 06:34:28;;;;;;;28.03;14.10;;;1.50;97.30;;;;;;5056850;28;20787;-88
2021/11/24 06:36:56;;;;;;;23.27;14.13;;;1.50;97.00;;;;;;5056185;28;20240;-88
2021/11/24 06:39:23;;;;;;;22.13;14.20;;;1.60;97.60;;;;;;5057382;28;20204;-87
2021/11/24 06:41:50;;;;;;;25.10;14.57;;;1.50;97.20;;;;;;5047425;28;20665;-88
2021/11/24 06:44:21;;;;;;;20.73;13.43;;;1.50;97.70;;;;;;5052083;28;20323;-87
2021/11/24 06:46:48;;;;;;;30.73;14.00;;;1.40;97.50;;;;;;5055709;28;20343;-88
2021/11/24 06:49:15;;;;;;;21.37;14.20;;;1.30;97.50;;;;;;5055799;28;20661;-87
2021/11/24 06:51:43;;;;;;;20.17;14.27;;;1.20;97.80;;;;;;5049394;28;20240;-89
2021/11/24 06:54:10;;;;;;;26.17;13.20;;;1.30;98.30;;;;;;5047588;28;20236;-87
2021/11/24 06:56:37;;;;;;;28.10;14.83;;;1.40;97.80;;;;;;5055622;28;20251;-89
2021/11/24 06:59:04;;;;;;;21.93;14.60;;;1.40;97.80;;;;;;5055934;28;20204;-88
2021/11/24 07:01:32;;;;;;;19.07;13.27;;;1.50;97.70;;;;;;5054670;28;20247;-87
2021/11/24 07:03:58;;;;;;;23.87;14.40;;;1.50;97.40;;;;;;5055514;28;20317;-88
2021/11/24 07:06:32;;;;;;;21.50;14.27;;;1.60;97.20;;;;;;5054856;28;20217;-88
2021/11/24 07:09:02;;;;;;;23.27;14.10;;;1.40;97.20;;;;;;5053297;28;20198;-86
2021/11/24 07:11:43;;;;;;;22.17;14.57;;;1.50;97.60;;;;;;5056784;28;20238;-84
2021/11/24 07:14:10;;;;;;;21.63;14.10;;;1.50;97.50;;;;;;5051796;28;20202;-86
2021/11/24 07:16:38;;;;;;;20.27;13.50;;;1.70;97.30;;;;;;5054757;28;20222;-87
2021/11/24 07:19:07;;;;;;;20.13;12.93;;;1.80;97.50;;;;;;5054711;28;20194;-86
2021/11/24 07:21:35;;;;;;;17.00;11.40;;;2.00;96.80;;;;;;5046434;28;20222;-86
2021/11/24 07:24:03;;;;;;;17.60;11.90;;;2.00;96.10;;;;;;5054142;28;20222;-87
2021/11/24 07:26:30;;;;;;;17.17;11.57;;;1.90;96.00;;;;;;5055541;28;20242;-88
2021/11/24 07:28:57;;;;;;;18.23;11.40;;;1.90;96.20;;;;;;5053006;28;20216;-88
2021/11/24 07:31:24;;;;;;;15.73;11.20;;;1.80;95.80;;;;;;5052942;28;20226;-86
2021/11/24 07:33:51;;;;;;;18.03;11.33;;;1.80;96.00;;;;;;5053327;28;20202;-86
2021/11/24 07:36:19;;;;;;;17.27;11.30;;;1.60;96.30;;;;;;5051418;28;20217;-86
2021/11/24 07:38:46;;;;;;;20.77;12.17;;;1.70;97.00;;;;;;5058380;28;20626;-87
2021/11/24 07:41:14;;;;;;;18.53;12.00;;;1.60;96.60;;;;;;5061705;28;20229;-86
2021/11/24 07:43:41;;;;;;;21.23;11.53;;;1.70;96.90;;;;;;5053879;28;20233;-86
2021/11/24 07:46:10;;;;;;;17.17;11.37;;;2.10;97.50;;;;;;5053651;28;20218;-87
2021/11/24 07:48:39;;;;;;;20.40;13.37;;;2.20;96.00;;;;;;5044764;28;20202;-89
2021/11/24 07:51:26;;;;;;;15.67;10.63;;;1.90;95.50;;;;;;5052592;28;20226;-85
2021/11/24 07:53:53;;;;;;;19.43;11.43;;;2.00;95.90;;;;;;5054962;28;20201;-84
2021/11/24 07:56:23;;;;;;;16.43;10.63;;;1.90;96.30;;;;;;5052136;28;20681;-87
2021/11/24 07:58:51;;;;;;;16.57;11.07;;;2.00;96.00;;;;;;5052931;28;20571;-87
2021/11/24 08:01:29;;;;;;;16.17;10.50;;;2.10;95.90;;;;;;5045383;28;20229;-86
2021/11/24 08:03:56;;;;;;;16.07;10.60;;;2.20;95.80;;;;;;5047161;28;20783;-85
2021/11/24 08:06:23;;;;;;;14.73;11.00;;;2.30;96.10;;;;;;5047763;28;20726;-85
2021/11/24 08:08:50;;;;;;;15.90;10.87;;;2.30;95.40;;;;;;5051435;28;20194;-86
2021/11/24 08:11:19;;;;;;;15.13;10.50;;;2.30;95.30;;;;;;5045458;28;20230;-87
2021/11/24 08:13:50;;;;;;;15.83;11.47;;;2.40;94.50;;;;;;5044395;28;20216;-87
2021/11/24 08:16:17;;;;;;;15.80;11.07;;;2.20;94.80;;;;;;5043073;28;20218;-88
2021/11/24 08:18:44;;;;;;;16.60;10.87;;;2.30;94.80;;;;;;5047009;28;20198;-87
2021/11/24 08:21:11;;;;;;;16.33;11.60;;;2.10;94.50;;;;;;5054168;28;20225;-88
2021/11/24 08:23:38;;;;;;;16.77;10.87;;;2.10;95.50;;;;;;5050776;28;20288;-86
2021/11/24 08:26:05;;;;;;;16.40;10.53;;;2.20;95.20;;;;;;5043475;28;20334;-88
2021/11/24 08:28:32;;;;;;;15.23;10.63;;;2.20;95.00;;;;;;5042414;28;20212;-87
2021/11/24 08:31:00;;;;;;;16.23;10.90;;;2.30;94.50;;;;;;5045990;28;20707;-88
2021/11/24 08:33:27;;;;;;;14.73;9.67;;;2.30;94.50;;;;;;5049614;28;20206;-87
2021/11/24 08:35:55;;;;;;;14.33;10.93;;;2.30;94.50;;;;;;5050938;28;20221;-87
2021/11/24 08:38:22;;;;;;;15.30;10.40;;;2.30;94.50;;;;;;5055207;28;20667;-86
2021/11/24 08:40:49;;;;;;;13.40;10.07;;;2.10;95.10;;;;;;5055215;28;20235;-87
2021/11/24 08:43:16;;;;;;;12.70;9.57;;;2.30;94.50;;;;;;5052961;28;20241;-86
2021/11/24 08:45:43;;;;;;;14.33;9.87;;;2.40;94.50;;;;;;5054730;28;20237;-87
2021/11/24 08:48:12;;;;;;;13.23;9.60;;;2.40;94.50;;;;;;5051048;28;20199;-86
2021/11/24 08:50:39;;;;;;;15.33;10.43;;;2.30;94.50;;;;;;5052750;28;20219;-87
2021/11/24 08:53:06;;;;;;;14.67;9.90;;;2.20;94.50;;;;;;5055861;28;20198;-86
2021/11/24 08:55:33;;;;;;;16.83;10.07;;;2.30;94.50;;;;;;5047959;28;20221;-85
2021/11/24 08:58:01;;;;;;;14.00;10.17;;;2.30;94.50;;;;;;5051072;28;20194;-89
2021/11/24 09:00:28;;;;;;;13.43;9.27;;;2.30;94.50;;;;;;5040215;28;20923;-88
2021/11/24 09:02:55;;;;;;;15.47;10.77;;;2.30;94.50;;;;;;5044025;28;20230;-86
2021/11/24 09:05:24;;;;;;;12.57;8.77;;;2.30;94.50;;;;;;5046282;28;20237;-87
2021/11/24 09:07:52;;;;;;;13.83;9.53;;;2.10;94.50;;;;;;5050448;28;20198;-89
2021/11/24 09:10:19;;;;;;;12.83;9.20;;;2.20;94.50;;;;;;5046643;28;20230;-87
2021/11/24 09:12:47;;;;;;;12.33;8.87;;;2.30;94.50;;;;;;5045056;28;20193;-86
2021/11/24 09:15:14;;;;;;;10.57;8.23;;;2.30;94.00;;;;;;5050683;28;20221;-87
2021/11/24 09:18:13;;;;;;;12.80;8.70;;;2.40;93.80;;;;;;5048885;28;20194;-84
2021/11/24 09:20:43;;;;;;;12.30;8.70;;;2.30;93.70;;;;;;5043492;28;20265;-90
2021/11/24 09:23:11;;;;;;;12.10;8.90;;;2.30;94.50;;;;;;5042698;28;20289;-86
2021/11/24 09:25:53;;;;;;;11.43;8.73;;;2.30;93.70;;;;;;5040691;28;20238;-86
2021/11/24 09:28:24;;;;;;;12.80;9.40;;;2.50;93.80;;;;;;5039165;28;20198;-87
2021/11/24 09:30:51;;;;;;;14.70;9.33;;;2.50;93.20;;;;;;5049720;28;20596;-84
2021/11/24 09:33:19;;;;;;;11.17;8.43;;;2.50;93.10;;;;;;5045032;28;20211;-87
2021/11/24 09:35:47;;;;;;;12.47;8.90;;;2.50;93.50;;;;;;5045731;28;20706;-87
2021/11/24 09:38:14;;;;;;;13.10;9.27;;;2.50;93.20;;;;;;5048724;28;20212;-88
2021/11/24 09:40:42;;;;;;;13.03;8.93;;;2.50;93.20;;;;;;5045621;28;20218;-88
2021/11/24 09:43:11;;;;;;;12.03;8.40;;;2.10;93.70;;;;;;5047335;28;20230;-89
2021/11/24 09:45:40;;;;;;;12.00;8.67;;;2.20;93.80;;;;;;5051101;28;20236;-85
2021/11/24 09:48:16;;;;;;;11.20;8.07;;;2.20;93.60;;;;;;5055925;28;20202;-87
2021/11/24 09:50:47;;;;;;;11.67;8.50;;;2.30;94.50;;;;;;5047986;28;20225;-86
2021/11/24 09:53:18;;;;;;;12.37;8.90;;;2.30;94.00;;;;;;5057308;28;20213;-84
2021/11/24 09:55:45;;;;;;;13.00;8.77;;;2.40;92.90;;;;;;5047162;28;20574;-85
2021/11/24 09:58:13;;;;;;;12.80;8.90;;;2.40;92.90;;;;;;5046642;28;20561;-85
2021/11/24 10:00:40;;;;;;;12.20;9.17;;;2.00;93.30;;;;;;5042667;28;20219;-85
2021/11/24 10:03:07;;;;;;;13.27;9.00;;;2.00;94.10;;;;;;5052561;28;20209;-86
2021/11/24 10:05:36;;;;;;;12.37;8.27;;;2.00;93.80;;;;;;5044119;28;20289;-86
2021/11/24 10:08:03;;;;;;;11.50;7.87;;;2.00;94.20;;;;;;5056376;28;20656;-86
2021/11/24 10:10:32;;;;;;;11.33;8.27;;;2.10;93.70;;;;;;5056274;28;20234;-87
2021/11/24 10:13:00;;;;;;;11.37;8.47;;;2.10;93.30;;;;;;5057210;28;20217;-87
2021/11/24 10:15:43;;;;;;;15.13;10.37;;;2.10;93.60;;;;;;5048638;28;20228;-87
2021/11/24 10:18:20;;;;;;;13.73;9.20;;;2.10;92.90;;;;;;5051718;28;20198;-86
2021/11/24 10:20:50;;;;;;;10.37;7.97;;;2.10;93.20;;;;;;5049338;28;20228;-88
2021/11/24 10:23:27;;;;;;;10.67;7.83;;;2.00;93.30;;;;;;5059457;28;20204;-88
2021/11/24 10:25:55;;;;;;;9.97;7.83;;;2.00;93.10;;;;;;5055937;28;20225;-88
2021/11/24 10:28:31;;;;;;;12.73;8.37;;;1.90;93.50;;;;;;5055383;28;20206;-87
2021/11/24 10:30:59;;;;;;;11.77;8.83;;;1.90;93.50;;;;;;5047754;28;20221;-85
2021/11/24 10:33:29;;;;;;;11.07;7.80;;;1.60;94.40;;;;;;5057799;28;20194;-86
2021/11/24 10:36:12;;;;;;;11.03;8.17;;;1.80;94.70;;;;;;5055240;28;20241;-86
2021/11/24 10:38:41;;;;;;;11.77;7.77;;;1.90;93.90;;;;;;5056315;28;20255;-86
2021/11/24 10:41:11;;;;;;;12.27;8.20;;;2.00;94.00;;;;;;5050940;28;20256;-86
2021/11/24 10:43:43;;;;;;;11.57;8.27;;;2.00;94.30;;;;;;5046064;28;20234;-86
2021/11/24 10:46:13;;;;;;;13.13;7.97;;;2.00;93.80;;;;;;5051496;28;20552;-86
2021/11/24 10:48:41;;;;;;;10.17;7.63;;;2.10;93.30;;;;;;5052171;28;20198;-86
2021/11/24 10:51:30;;;;;;;10.50;7.70;;;1.80;94.40;;;;;;5045227;28;20230;-86
2021/11/24 10:54:15;;;;;;;10.93;7.33;;;1.80;94.40;;;;;;5049608;28;20190;-86
2021/11/24 10:57:13;;;;;;;13.90;7.90;;;1.80;93.90;;;;;;5048663;28;20242;-88
2021/11/24 10:59:42;;;;;;;10.60;7.67;;;2.00;93.80;;;;;;5046355;28;20206;-87
2021/11/24 11:02:25;;;;;;;11.63;8.00;;;2.10;93.80;;;;;;5054642;28;20209;-87
2021/11/24 11:05:01;;;;;;;8.83;6.93;;;2.10;93.30;;;;;;5051439;28;20213;-86
2021/11/24 11:07:30;;;;;;;11.60;7.90;;;2.10;92.90;;;;;;5051932;28;20205;-85
2021/11/24 11:10:08;;;;;;;10.70;7.60;;;2.00;93.20;;;;;;5051327;28;20202;-88
2021/11/24 11:12:38;;;;;;;11.63;8.03;;;2.00;93.10;;;;;;5053955;28;20198;-86
2021/11/24 11:15:36;;;;;;;10.87;7.30;;;1.80;93.90;;;;;;5056842;28;20236;-85
2021/11/24 11:18:15;;;;;;;9.87;7.33;;;1.90;93.60;;;;;;5051182;28;20202;-88
2021/11/24 11:20:46;;;;;;;10.43;7.50;;;1.90;93.70;;;;;;5050631;28;20235;-87
2021/11/24 11:23:26;;;;;;;10.37;7.73;;;2.00;94.10;;;;;;5054616;28;20206;-87
2021/11/24 11:25:56;;;;;;;10.40;7.40;;;2.00;93.40;;;;;;5051861;28;20246;-84
2021/11/24 11:28:26;;;;;;;9.97;7.47;;;2.00;93.20;;;;;;5054138;28;20953;-86
2021/11/24 11:30:57;;;;;;;10.10;7.73;;;2.00;93.10;;;;;;5047655;28;20304;-87
2021/11/24 11:33:26;;;;;;;10.77;7.60;;;2.00;93.20;;;;;;5053573;28;20190;-85
2021/11/24 11:35:54;;;;;;;11.57;7.60;;;2.00;93.30;;;;;;5052674;28;20218;-87
2021/11/24 11:38:22;;;;;;;11.50;7.87;;;2.00;93.30;;;;;;5053204;28;20292;-84
2021/11/24 11:40:52;;;;;;;11.30;7.67;;;2.00;93.30;;;;;;5051556;28;20222;-84
2021/11/24 11:43:22;;;;;;;11.57;8.17;;;1.90;93.70;;;;;;5049406;28;20918;-85
2021/11/24 11:45:50;;;;;;;10.37;7.60;;;2.00;93.40;;;;;;5056003;28;20226;-86
2021/11/24 11:48:27;;;;;;;12.23;7.73;;;2.00;93.50;;;;;;5059980;28;20205;-84
2021/11/24 11:50:57;;;;;;;11.37;7.60;;;2.00;93.30;;;;;;5054818;28;20696;-86
2021/11/24 11:53:26;;;;;;;10.17;7.50;;;1.90;93.30;;;;;;5047951;28;20201;-85
2021/11/24 11:56:27;;;;;;;12.83;8.63;;;2.00;94.20;;;;;;5045075;28;20226;-86
2021/11/24 11:58:58;;;;;;;10.33;7.63;;;2.10;93.40;;;;;;5053010;28;20602;-85
2021/11/24 12:01:30;;;;;;;11.17;7.30;;;2.00;93.00;;;;;;5046023;28;20226;-85
2021/11/24 12:04:04;;;;;;;11.07;8.40;;;2.00;93.40;;;;;;5048218;28;20213;-87
2021/11/24 12:06:33;;;;;;;13.63;9.13;;;1.90;93.20;;;;;;5046394;28;20252;-86
2021/11/24 12:09:18;;;;;;;11.90;7.97;;;2.00;94.00;;;;;;5049680;28;20236;-85
2021/11/24 12:12:30;;;;;;;13.07;8.93;;;2.20;93.10;;;;;;5050664;28;20230;-84
2021/11/24 12:15:00;;;;;;;12.23;8.00;;;2.10;93.10;;;;;;5052523;28;20212;-85
2021/11/24 12:17:48;;;;;;;14.30;8.30;;;2.00;93.20;;;;;;5051797;28;20212;-85
2021/11/24 12:20:40;;;;;;;10.63;7.43;;;2.00;92.90;;;;;;5050509;28;20221;-86
2021/11/24 12:23:24;;;;;;;11.03;7.90;;;1.90;93.10;;;;;;5051022;28;20718;-84
2021/11/24 12:25:53;;;;;;;10.83;7.37;;;2.00;93.20;;;;;;5053989;28;20225;-83
2021/11/24 12:28:23;;;;;;;11.03;8.20;;;1.90;93.10;;;;;;5050855;28;20571;-82
2021/11/24 12:31:02;;;;;;;10.87;7.57;;;1.90;93.20;;;;;;5050822;28;20221;-82
2021/11/24 12:33:33;;;;;;;10.50;7.20;;;1.90;93.60;;;;;;5054024;28;20201;-83
2021/11/24 12:36:04;;;;;;;10.57;7.50;;;2.00;93.30;;;;;;5041011;28;20222;-82
2021/11/24 12:38:33;;;;;;;12.90;8.47;;;2.00;92.90;;;;;;5051736;28;20201;-83
2021/11/24 12:41:03;;;;;;;11.23;8.03;;;2.10;92.60;;;;;;5049718;28;20225;-83
2021/11/24 12:43:33;;;;;;;12.20;8.40;;;1.90;92.60;;;;;;5047671;28;20307;-83
2021/11/24 12:46:07;;;;;;;10.87;7.60;;;1.80;93.20;;;;;;5051179;28;20241;-82
2021/11/24 12:48:42;;;;;;;11.90;7.83;;;1.80;93.00;;;;;;5064323;28;20201;-82
2021/11/24 12:51:10;;;;;;;12.17;8.30;;;1.90;93.00;;;;;;5058283;28;20225;-84
2021/11/24 12:53:37;;;;;;;12.37;9.07;;;2.00;93.20;;;;;;5042892;28;20377;-84
2021/11/24 12:56:09;;;;;;;13.17;8.63;;;1.90;93.00;;;;;;5050853;28;20222;-84